Ship Status Report: callsign SLRE

sailwx.info

Track history (hours):
 
Tides and Currents Weather Stations Pressure Air Temp Water Temp Dewpoint Dewpoint Depression Visibility Wind Speed Wind Dir Waves Ship Positions

Callsign SLRE (name unknown)

Last reported at 2017-Jan-14 13:27 UTC. Time now 2017-Jan-16 11:03 UTC.
Position N 55°32' E 015°12'.

AWS

Date/timePositionNaut miles runAvg speedWind from/ knotsBaromVisibWave heightAir tempDewpointWater temp
2017-Jan-14 13:27N 55°32' E 015°12'8 8.5
2017-Jan-14 12:30N 55°31' E 014°58'8 8.7
2017-Jan-14 11:33N 55°29' E 014°44'3 2.7
2017-Jan-14 10:33N 55°28' E 014°39'3 3.0
2017-Jan-14 09:33N 55°29' E 014°44'3 2.8
2017-Jan-14 08:27N 55°29' E 014°50'3 2.9
2017-Jan-14 07:32N 55°28' E 014°54'3 3.3
2017-Jan-14 06:32N 55°28' E 014°60'1 0.7
2017-Jan-14 05:34N 55°28' E 014°59'10 9.4
2017-Jan-14 04:30N 55°25' E 014°42'9 9.3
2017-Jan-14 03:33N 55°23' E 014°27'60 8.0
2017-Jan-13 20:04N 55°28' E 012°41'4 8.0
2017-Jan-13 19:33N 55°32' E 012°42'8 7.7
2017-Jan-13 18:33N 55°40' E 012°41'8 8.2
2017-Jan-13 17:33N 55°48' E 012°41'9 8.6
2017-Jan-13 16:33N 55°57' E 012°38'7 7.4
2017-Jan-13 15:33N 56°04' E 012°36'  
Track history (hours):
 
Tides and Currents Weather Stations Pressure Air Temp Water Temp Dewpoint Dewpoint Depression Visibility Wind Speed Wind Dir Waves Ship Positions

Callsign SLRE (name unknown)

Last reported at 2017-Jan-14 13:27 UTC. Time now 2017-Jan-16 11:03 UTC.
Position N 55°32' E 015°12'.

AWS

Date/timePositionNaut miles runAvg speedWind from/ knotsBaromVisibWave heightAir tempDewpointWater temp
2017-Jan-14 13:27N 55°32' E 015°12'8 8.5
2017-Jan-14 12:30N 55°31' E 014°58'8 8.7
2017-Jan-14 11:33N 55°29' E 014°44'3 2.7
2017-Jan-14 10:33N 55°28' E 014°39'3 3.0
2017-Jan-14 09:33N 55°29' E 014°44'3 2.8
2017-Jan-14 08:27N 55°29' E 014°50'3 2.9
2017-Jan-14 07:32N 55°28' E 014°54'3 3.3
2017-Jan-14 06:32N 55°28' E 014°60'1 0.7
2017-Jan-14 05:34N 55°28' E 014°59'10 9.4
2017-Jan-14 04:30N 55°25' E 014°42'9 9.3
2017-Jan-14 03:33N 55°23' E 014°27'60 8.0
2017-Jan-13 20:04N 55°28' E 012°41'4 8.0
2017-Jan-13 19:33N 55°32' E 012°42'8 7.7
2017-Jan-13 18:33N 55°40' E 012°41'8 8.2
2017-Jan-13 17:33N 55°48' E 012°41'9 8.6
2017-Jan-13 16:33N 55°57' E 012°38'7 7.4
2017-Jan-13 15:33N 56°04' E 012°36'  

Dump ship's entire track history